Terminal Aerodrome Forecast
Issued by NWS

Home | Current Version | Previous Version | Text Only | Print | Product List | Glossary On
Versions: 1 2 3 4 5 6 7 8 9 10 11 12 13 14 15 16 17 18 19 20 21 22 23 24 25 26 27 28 29 30 31 32 33 34 35 36 37 38
000
FTPQ31 PGUM 282041 RRD
TAFGRO
TAF

TAF
PGWT 282041Z 2821/2918 15013KT P6SM VCSH FEW010 SCT025 BKN100
      TEMPO 2821/2823 5SM SHRA SCT010 OVC025
     FM290100 17016KT P6SM VCSH SCT011 BKN030 BKN120
     FM290900 16009KT P6SM VCSH FEW011 SCT030 BKN150=

USA.gov is the U.S. government's official web portal to all federal, state and local government web resources and services.